WUK7RW EGGW-LEBB
Flight info
| Callsign | WUK7RW |
|---|---|
| Flight time | N/A |
| Altitude | 31000 |
| Route | RODNI N27 ICTAM Q63 CPT Y321 PEPIS Q41 SAM M195 MARUK/N0441F330 N621 LELNA DCT NOVAN DCT DELOG N75 DOSUL |
| Aircraft | A21N/M-SDE1E2E3FGIJ1J4RWXY/LB1 |
Departure
| Time | N/A |
|---|---|
| Airport | London Luton Airport (EGGW) |
Arrival
| Time | 2026-04-29 12:51 |
|---|---|
| Airport | Bilbao Airport (LEBB) |
| Time | Latitude | Longitude | Altitude | Speed | Heading |
|---|---|---|---|---|---|
| 2026-04-29 11:37 | 50.24027 | -2.05528 | 33158 ft | 412 kts | 197° |
| 2026-04-29 11:38 | 50.18474 | -2.07722 | 33152 ft | 411 kts | 190° |
| 2026-04-29 11:38 | 50.12818 | -2.08732 | 33136 ft | 411 kts | 185° |
| 2026-04-29 11:39 | 50.07152 | -2.09494 | 33132 ft | 411 kts | 186° |
| 2026-04-29 11:39 | 50.01459 | -2.10348 | 33121 ft | 412 kts | 188° |
| 2026-04-29 11:40 | 49.95817 | -2.11973 | 33113 ft | 411 kts | 194° |
| 2026-04-29 11:40 | 49.90355 | -2.14388 | 33103 ft | 410 kts | 197° |
| 2026-04-29 11:41 | 49.84896 | -2.16925 | 33097 ft | 410 kts | 197° |
| 2026-04-29 11:41 | 49.79448 | -2.19452 | 33096 ft | 409 kts | 197° |
| 2026-04-29 11:42 | 49.74019 | -2.21971 | 33099 ft | 409 kts | 197° |
| 2026-04-29 11:42 | 49.68572 | -2.24495 | 33099 ft | 409 kts | 197° |
| 2026-04-29 11:43 | 49.63166 | -2.26996 | 33088 ft | 408 kts | 197° |
| 2026-04-29 11:43 | 49.57715 | -2.29510 | 33085 ft | 407 kts | 197° |
| 2026-04-29 11:44 | 49.52309 | -2.32000 | 33081 ft | 406 kts | 197° |
| 2026-04-29 11:44 | 49.46930 | -2.34471 | 33078 ft | 406 kts | 197° |
| 2026-04-29 11:45 | 49.41523 | -2.36947 | 33078 ft | 405 kts | 197° |
| 2026-04-29 11:45 | 49.36146 | -2.39406 | 33077 ft | 405 kts | 197° |
| 2026-04-29 11:46 | 49.30783 | -2.41853 | 33072 ft | 405 kts | 197° |
| 2026-04-29 11:46 | 49.25380 | -2.44314 | 33068 ft | 403 kts | 197° |
| 2026-04-29 11:47 | 49.20044 | -2.46735 | 33057 ft | 403 kts | 197° |
| 2026-04-29 11:47 | 49.14677 | -2.49166 | 33056 ft | 403 kts | 197° |
| 2026-04-29 11:48 | 49.09315 | -2.51591 | 33052 ft | 402 kts | 198° |
| 2026-04-29 11:48 | 49.03953 | -2.54009 | 33043 ft | 402 kts | 198° |
| 2026-04-29 11:49 | 48.98635 | -2.56406 | 33034 ft | 402 kts | 198° |
| 2026-04-29 11:49 | 48.93275 | -2.58812 | 33034 ft | 401 kts | 198° |
| 2026-04-29 11:50 | 48.87925 | -2.61208 | 33034 ft | 400 kts | 198° |
| 2026-04-29 11:50 | 48.82618 | -2.63581 | 33019 ft | 400 kts | 198° |
| 2026-04-29 11:51 | 48.77267 | -2.65967 | 33024 ft | 401 kts | 197° |
| 2026-04-29 11:51 | 48.71923 | -2.68346 | 33020 ft | 401 kts | 197° |
| 2026-04-29 11:52 | 48.66602 | -2.70713 | 33014 ft | 400 kts | 197° |
| 2026-04-29 11:52 | 48.61286 | -2.73067 | 33017 ft | 400 kts | 197° |
| 2026-04-29 11:53 | 48.55941 | -2.75427 | 33006 ft | 400 kts | 197° |
| 2026-04-29 11:53 | 48.50601 | -2.77785 | 33006 ft | 400 kts | 197° |
| 2026-04-29 11:54 | 48.45275 | -2.80128 | 33007 ft | 399 kts | 197° |
| 2026-04-29 11:54 | 48.39966 | -2.82460 | 32997 ft | 399 kts | 197° |
| 2026-04-29 11:55 | 48.34644 | -2.84794 | 32999 ft | 399 kts | 197° |
| 2026-04-29 11:55 | 48.29310 | -2.87129 | 32988 ft | 399 kts | 197° |
| 2026-04-29 11:56 | 48.23992 | -2.89447 | 32985 ft | 400 kts | 197° |
| 2026-04-29 11:56 | 48.18653 | -2.91772 | 32979 ft | 399 kts | 197° |
| 2026-04-29 11:57 | 48.13369 | -2.94070 | 32968 ft | 399 kts | 197° |
| 2026-04-29 11:57 | 48.08025 | -2.96386 | 32959 ft | 399 kts | 197° |
| 2026-04-29 11:58 | 48.02691 | -2.98692 | 32953 ft | 399 kts | 197° |
| 2026-04-29 11:58 | 47.97377 | -3.00986 | 32954 ft | 398 kts | 197° |
| 2026-04-29 11:59 | 47.92067 | -3.03273 | 32947 ft | 399 kts | 197° |
| 2026-04-29 11:59 | 47.86762 | -3.05554 | 32952 ft | 399 kts | 197° |
| 2026-04-29 12:00 | 47.81460 | -3.07830 | 32944 ft | 399 kts | 197° |
| 2026-04-29 12:00 | 47.76111 | -3.10117 | 32947 ft | 399 kts | 197° |
| 2026-04-29 12:01 | 47.70792 | -3.12390 | 32942 ft | 399 kts | 197° |
| 2026-04-29 12:01 | 47.65483 | -3.14650 | 32943 ft | 398 kts | 197° |
| 2026-04-29 12:02 | 47.60149 | -3.16921 | 32936 ft | 399 kts | 196° |
| 2026-04-29 12:02 | 47.54853 | -3.19169 | 32934 ft | 398 kts | 196° |
| 2026-04-29 12:03 | 47.49540 | -3.21417 | 32937 ft | 398 kts | 197° |
| 2026-04-29 12:03 | 47.44209 | -3.23671 | 32942 ft | 398 kts | 196° |
| 2026-04-29 12:04 | 47.38908 | -3.25907 | 33103 ft | 401 kts | 196° |
| 2026-04-29 12:04 | 47.36216 | -3.27042 | 33390 ft | 401 kts | 196° |
| 2026-04-29 12:04 | 47.33563 | -3.28157 | 33677 ft | 400 kts | 196° |
| 2026-04-29 12:05 | 47.30876 | -3.29285 | 33969 ft | 400 kts | 196° |
| 2026-04-29 12:05 | 47.28220 | -3.30401 | 34240 ft | 399 kts | 196° |
| 2026-04-29 12:05 | 47.25538 | -3.31523 | 34494 ft | 399 kts | 197° |
| 2026-04-29 12:05 | 47.22881 | -3.32637 | 34731 ft | 399 kts | 197° |
| 2026-04-29 12:06 | 47.20234 | -3.33745 | 34887 ft | 400 kts | 197° |
| 2026-04-29 12:06 | 47.17540 | -3.34871 | 34924 ft | 401 kts | 197° |
| 2026-04-29 12:06 | 47.12181 | -3.37110 | 34927 ft | 401 kts | 196° |
| 2026-04-29 12:07 | 47.06818 | -3.39343 | 34923 ft | 402 kts | 196° |
| 2026-04-29 12:07 | 47.01454 | -3.41571 | 34924 ft | 402 kts | 196° |
| 2026-04-29 12:08 | 46.96080 | -3.43801 | 34919 ft | 403 kts | 196° |
| 2026-04-29 12:08 | 46.90698 | -3.46029 | 34920 ft | 403 kts | 196° |
| 2026-04-29 12:09 | 46.85331 | -3.48243 | 34917 ft | 402 kts | 196° |
| 2026-04-29 12:09 | 46.79964 | -3.50454 | 34911 ft | 402 kts | 196° |
| 2026-04-29 12:10 | 46.74591 | -3.52663 | 34905 ft | 402 kts | 196° |
| 2026-04-29 12:10 | 46.69220 | -3.54868 | 34906 ft | 402 kts | 196° |
| 2026-04-29 12:11 | 46.63860 | -3.57063 | 34903 ft | 403 kts | 197° |
| 2026-04-29 12:11 | 46.58453 | -3.59274 | 34899 ft | 403 kts | 196° |
| 2026-04-29 12:12 | 46.53034 | -3.61484 | 34891 ft | 404 kts | 196° |
| 2026-04-29 12:12 | 46.47643 | -3.63675 | 34887 ft | 404 kts | 196° |
| 2026-04-29 12:13 | 46.42239 | -3.65868 | 34886 ft | 405 kts | 196° |
| 2026-04-29 12:13 | 46.36824 | -3.68063 | 34882 ft | 405 kts | 195° |
| 2026-04-29 12:14 | 46.31310 | -3.69858 | 34883 ft | 405 kts | 190° |
| 2026-04-29 12:14 | 46.25741 | -3.70872 | 34873 ft | 405 kts | 187° |
| 2026-04-29 12:15 | 46.20109 | -3.71728 | 34874 ft | 405 kts | 187° |
| 2026-04-29 12:15 | 46.14519 | -3.72573 | 34867 ft | 405 kts | 187° |
| 2026-04-29 12:16 | 46.08938 | -3.73407 | 34871 ft | 404 kts | 187° |
| 2026-04-29 12:16 | 46.03357 | -3.74236 | 34876 ft | 405 kts | 187° |
| 2026-04-29 12:17 | 45.97733 | -3.75071 | 34869 ft | 406 kts | 187° |
| 2026-04-29 12:17 | 45.92110 | -3.75903 | 34873 ft | 407 kts | 187° |
| 2026-04-29 12:18 | 45.86497 | -3.76734 | 34868 ft | 407 kts | 187° |
| 2026-04-29 12:18 | 45.80865 | -3.77563 | 34869 ft | 407 kts | 187° |
| 2026-04-29 12:19 | 45.75244 | -3.78389 | 34865 ft | 407 kts | 187° |
| 2026-04-29 12:19 | 45.69623 | -3.79214 | 34863 ft | 407 kts | 187° |
| 2026-04-29 12:20 | 45.64001 | -3.80035 | 34858 ft | 407 kts | 187° |
| 2026-04-29 12:20 | 45.58385 | -3.80857 | 34855 ft | 407 kts | 187° |
| 2026-04-29 12:21 | 45.52774 | -3.81676 | 34857 ft | 406 kts | 186° |
| 2026-04-29 12:21 | 45.47176 | -3.82490 | 34851 ft | 405 kts | 186° |
| 2026-04-29 12:22 | 45.41575 | -3.83303 | 34851 ft | 406 kts | 186° |
| 2026-04-29 12:22 | 45.35961 | -3.84117 | 34846 ft | 406 kts | 186° |
| 2026-04-29 12:23 | 45.30345 | -3.84927 | 34840 ft | 407 kts | 186° |
| 2026-04-29 12:23 | 45.24729 | -3.85737 | 34831 ft | 407 kts | 186° |
| 2026-04-29 12:24 | 45.19051 | -3.86557 | 34834 ft | 408 kts | 186° |
| 2026-04-29 12:24 | 45.13454 | -3.87360 | 34835 ft | 407 kts | 186° |
| 2026-04-29 12:25 | 45.07836 | -3.88169 | 34836 ft | 407 kts | 186° |
| 2026-04-29 12:26 | 44.99385 | -3.89377 | 34826 ft | 407 kts | 186° |
| 2026-04-29 12:26 | 44.93760 | -3.90180 | 34526 ft | 406 kts | 186° |
| 2026-04-29 12:26 | 44.90976 | -3.90577 | 34178 ft | 404 kts | 186° |
| 2026-04-29 12:27 | 44.88189 | -3.90973 | 33718 ft | 401 kts | 186° |
| 2026-04-29 12:27 | 44.85398 | -3.91372 | 33136 ft | 399 kts | 186° |
| 2026-04-29 12:27 | 44.82660 | -3.91761 | 32539 ft | 399 kts | 186° |
| 2026-04-29 12:27 | 44.79890 | -3.92155 | 31916 ft | 398 kts | 186° |
| 2026-04-29 12:28 | 44.77175 | -3.92541 | 31486 ft | 394 kts | 185° |
| 2026-04-29 12:28 | 44.74438 | -3.92929 | 31092 ft | 392 kts | 185° |
| 2026-04-29 12:28 | 44.71760 | -3.93308 | 30697 ft | 389 kts | 185° |
| 2026-04-29 12:28 | 44.69082 | -3.93686 | 30275 ft | 387 kts | 185° |
| 2026-04-29 12:29 | 44.66386 | -3.94065 | 29838 ft | 384 kts | 185° |
| 2026-04-29 12:29 | 44.63765 | -3.94433 | 29391 ft | 381 kts | 185° |
| 2026-04-29 12:29 | 44.61137 | -3.94804 | 28947 ft | 378 kts | 185° |
| 2026-04-29 12:29 | 44.58523 | -3.95172 | 28506 ft | 375 kts | 185° |
| 2026-04-29 12:30 | 44.55952 | -3.95532 | 28082 ft | 372 kts | 185° |
| 2026-04-29 12:30 | 44.53401 | -3.95891 | 27647 ft | 369 kts | 185° |
| 2026-04-29 12:30 | 44.50841 | -3.96251 | 27220 ft | 366 kts | 185° |
| 2026-04-29 12:30 | 44.48338 | -3.96602 | 26784 ft | 364 kts | 185° |
| 2026-04-29 12:31 | 44.45820 | -3.96955 | 26358 ft | 361 kts | 185° |
| 2026-04-29 12:31 | 44.43353 | -3.97300 | 25938 ft | 358 kts | 185° |
| 2026-04-29 12:31 | 44.40877 | -3.97646 | 25534 ft | 355 kts | 185° |
| 2026-04-29 12:31 | 44.38446 | -3.97986 | 25123 ft | 352 kts | 185° |
| 2026-04-29 12:32 | 44.36006 | -3.98306 | 24710 ft | 350 kts | 182° |
| 2026-04-29 12:32 | 44.33612 | -3.98020 | 24265 ft | 348 kts | 168° |
| 2026-04-29 12:32 | 44.31337 | -3.96876 | 23825 ft | 348 kts | 155° |
| 2026-04-29 12:32 | 44.29330 | -3.95055 | 23409 ft | 348 kts | 146° |
| 2026-04-29 12:33 | 44.27391 | -3.93040 | 22992 ft | 346 kts | 146° |
| 2026-04-29 12:33 | 44.25491 | -3.91047 | 22562 ft | 344 kts | 146° |
| 2026-04-29 12:33 | 44.23579 | -3.89039 | 22133 ft | 342 kts | 146° |
| 2026-04-29 12:33 | 44.21694 | -3.87068 | 21697 ft | 341 kts | 146° |
| 2026-04-29 12:34 | 44.19793 | -3.85081 | 21260 ft | 340 kts | 146° |
| 2026-04-29 12:34 | 44.17921 | -3.83126 | 20834 ft | 339 kts | 146° |
| 2026-04-29 12:34 | 44.16032 | -3.81156 | 20409 ft | 337 kts | 146° |
| 2026-04-29 12:34 | 44.14179 | -3.79227 | 19982 ft | 336 kts | 146° |
| 2026-04-29 12:35 | 44.12308 | -3.77280 | 19549 ft | 334 kts | 146° |
| 2026-04-29 12:35 | 44.10466 | -3.75362 | 19124 ft | 333 kts | 146° |
| 2026-04-29 12:35 | 44.08605 | -3.73428 | 18704 ft | 331 kts | 146° |
| 2026-04-29 12:35 | 44.06772 | -3.71527 | 18281 ft | 330 kts | 146° |
| 2026-04-29 12:36 | 44.04956 | -3.69641 | 17864 ft | 329 kts | 146° |
| 2026-04-29 12:36 | 44.03111 | -3.67729 | 17434 ft | 328 kts | 146° |
| 2026-04-29 12:36 | 44.01306 | -3.65859 | 17003 ft | 326 kts | 147° |
| 2026-04-29 12:36 | 43.99482 | -3.63971 | 16583 ft | 325 kts | 147° |
| 2026-04-29 12:37 | 43.97680 | -3.62106 | 16147 ft | 324 kts | 147° |
| 2026-04-29 12:37 | 43.95887 | -3.60256 | 15722 ft | 323 kts | 147° |
| 2026-04-29 12:37 | 43.94092 | -3.58404 | 15327 ft | 321 kts | 147° |
| 2026-04-29 12:37 | 43.92309 | -3.56564 | 14904 ft | 320 kts | 147° |
| 2026-04-29 12:38 | 43.90506 | -3.54703 | 14451 ft | 319 kts | 147° |
| 2026-04-29 12:38 | 43.88747 | -3.52890 | 14060 ft | 317 kts | 147° |
| 2026-04-29 12:38 | 43.86987 | -3.51078 | 13677 ft | 316 kts | 147° |
| 2026-04-29 12:38 | 43.85213 | -3.49256 | 13259 ft | 315 kts | 147° |
| 2026-04-29 12:39 | 43.83473 | -3.47468 | 12820 ft | 314 kts | 147° |
| 2026-04-29 12:39 | 43.81715 | -3.45663 | 12439 ft | 312 kts | 147° |
| 2026-04-29 12:39 | 43.79990 | -3.43892 | 12048 ft | 310 kts | 147° |
| 2026-04-29 12:39 | 43.78270 | -3.42127 | 11638 ft | 309 kts | 147° |
| 2026-04-29 12:40 | 43.76545 | -3.40361 | 11244 ft | 306 kts | 147° |
| 2026-04-29 12:40 | 43.74827 | -3.38603 | 10856 ft | 305 kts | 147° |
| 2026-04-29 12:40 | 43.73119 | -3.36853 | 10464 ft | 303 kts | 147° |
| 2026-04-29 12:40 | 43.71439 | -3.35136 | 10128 ft | 298 kts | 147° |
| 2026-04-29 12:41 | 43.69803 | -3.33460 | 10024 ft | 285 kts | 148° |
| 2026-04-29 12:41 | 43.68251 | -3.31870 | 9904 ft | 274 kts | 148° |
| 2026-04-29 12:41 | 43.66753 | -3.30318 | 9607 ft | 269 kts | 148° |
| 2026-04-29 12:41 | 43.65260 | -3.28758 | 9257 ft | 268 kts | 148° |
| 2026-04-29 12:42 | 43.63784 | -3.27215 | 8902 ft | 266 kts | 147° |
| 2026-04-29 12:42 | 43.62326 | -3.25691 | 8559 ft | 264 kts | 147° |
| 2026-04-29 12:42 | 43.60857 | -3.24154 | 8241 ft | 263 kts | 147° |
| 2026-04-29 12:42 | 43.59413 | -3.22647 | 7894 ft | 262 kts | 147° |
| 2026-04-29 12:43 | 43.57946 | -3.21136 | 7457 ft | 263 kts | 146° |
| 2026-04-29 12:43 | 43.56496 | -3.19644 | 7075 ft | 262 kts | 146° |
| 2026-04-29 12:43 | 43.55049 | -3.18150 | 6716 ft | 260 kts | 146° |
| 2026-04-29 12:43 | 43.53593 | -3.16662 | 6373 ft | 258 kts | 148° |
| 2026-04-29 12:44 | 43.51969 | -3.15805 | 6024 ft | 253 kts | 175° |
| 2026-04-29 12:44 | 43.50235 | -3.16146 | 5683 ft | 252 kts | 201° |
| 2026-04-29 12:44 | 43.48795 | -3.17489 | 5318 ft | 253 kts | 220° |
| 2026-04-29 12:44 | 43.47512 | -3.19114 | 4995 ft | 251 kts | 219° |
| 2026-04-29 12:45 | 43.46189 | -3.20659 | 4689 ft | 249 kts | 216° |
| 2026-04-29 12:45 | 43.44789 | -3.22041 | 4363 ft | 246 kts | 205° |
| 2026-04-29 12:45 | 43.43152 | -3.22551 | 4034 ft | 244 kts | 174° |
| 2026-04-29 12:45 | 43.41555 | -3.21782 | 3992 ft | 249 kts | 146° |
| 2026-04-29 12:46 | 43.40455 | -3.20036 | 3982 ft | 238 kts | 120° |
| 2026-04-29 12:46 | 43.39814 | -3.18001 | 3981 ft | 223 kts | 115° |
| 2026-04-29 12:46 | 43.39238 | -3.16073 | 3862 ft | 214 kts | 116° |
| 2026-04-29 12:46 | 43.38629 | -3.14248 | 3637 ft | 208 kts | 118° |
| 2026-04-29 12:47 | 43.38011 | -3.12513 | 3413 ft | 199 kts | 119° |
| 2026-04-29 12:47 | 43.37397 | -3.10843 | 3110 ft | 193 kts | 119° |
| 2026-04-29 12:47 | 43.36808 | -3.09250 | 2816 ft | 178 kts | 119° |
| 2026-04-29 12:47 | 43.36279 | -3.07819 | 2596 ft | 162 kts | 119° |
| 2026-04-29 12:48 | 43.35789 | -3.06495 | 2359 ft | 149 kts | 119° |
| 2026-04-29 12:48 | 43.35326 | -3.05247 | 2154 ft | 145 kts | 118° |
| 2026-04-29 12:48 | 43.34871 | -3.04015 | 1970 ft | 144 kts | 117° |
| 2026-04-29 12:48 | 43.34422 | -3.02795 | 1795 ft | 144 kts | 119° |
| 2026-04-29 12:49 | 43.33968 | -3.01564 | 1611 ft | 143 kts | 117° |
| 2026-04-29 12:49 | 43.33517 | -3.00339 | 1424 ft | 143 kts | 116° |
| 2026-04-29 12:49 | 43.33076 | -2.99132 | 1231 ft | 143 kts | 120° |
| 2026-04-29 12:49 | 43.32629 | -2.97919 | 1035 ft | 142 kts | 119° |
| 2026-04-29 12:50 | 43.32185 | -2.96702 | 836 ft | 142 kts | 119° |
| 2026-04-29 12:50 | 43.31731 | -2.95504 | 668 ft | 141 kts | 117° |
| 2026-04-29 12:50 | 43.31280 | -2.94313 | 518 ft | 142 kts | 118° |
| 2026-04-29 12:50 | 43.30843 | -2.93111 | 294 ft | 140 kts | 116° |
| 2026-04-29 12:51 | 43.30418 | -2.91930 | 150 ft | 134 kts | 115° |
| 2026-04-29 12:51 | 43.30070 | -2.90952 | 154 ft | 89 kts | 116° |
| 2026-04-29 12:51 | 43.29919 | -2.90425 | 150 ft | 36 kts | 88° |
| 2026-04-29 12:51 | 43.29940 | -2.90256 | 149 ft | 12 kts | 57° |
| 2026-04-29 12:52 | 43.30002 | -2.90269 | 151 ft | 11 kts | 300° |
| 2026-04-29 12:52 | 43.30035 | -2.90355 | 153 ft | 9 kts | 296° |
| 2026-04-29 12:52 | 43.30063 | -2.90431 | 155 ft | 9 kts | 297° |
| 2026-04-29 12:52 | 43.30097 | -2.90522 | 156 ft | 8 kts | 304° |
| 2026-04-29 12:53 | 43.30141 | -2.90565 | 157 ft | 7 kts | 352° |
| 2026-04-29 12:53 | 43.30188 | -2.90551 | 158 ft | 7 kts | 22° |
| 2026-04-29 12:53 | 43.30236 | -2.90536 | 159 ft | 4 kts | 354° |
| 2026-04-29 12:53 | 43.30270 | -2.90529 | 160 ft | 5 kts | 28° |
| 2026-04-29 12:54 | 43.30299 | -2.90485 | 161 ft | 2 kts | 54° |
| 2026-04-29 12:54 | 43.30304 | -2.90476 | 161 ft | 0 kts | 56° |